createdAt,value
2022-12-08T07:48:57.341Z,101182.54
2022-12-08T07:51:26.269Z,101182.77
2022-12-08T07:53:55.881Z,101188.05
2022-12-08T07:56:24.843Z,101188.34
2022-12-08T07:58:53.602Z,101189.13
2022-12-08T08:01:29.483Z,101186.60
2022-12-08T08:04:02.336Z,101193.94
2022-12-08T08:06:35.246Z,101196.31
2022-12-08T08:09:04.357Z,101199.27
2022-12-08T08:11:32.827Z,101200.68
2022-12-08T08:14:01.452Z,101203.66
2022-12-08T08:16:34.946Z,101201.33
2022-12-08T08:19:06.618Z,101200.55
2022-12-08T08:21:50.495Z,101199.71
2022-12-08T08:24:20.531Z,101198.60
2022-12-08T08:26:49.114Z,101199.12
2022-12-08T08:29:17.387Z,101202.29
2022-12-08T08:31:45.811Z,101205.60
2022-12-08T08:34:14.284Z,101212.43
2022-12-08T08:36:42.818Z,101213.39
2022-12-08T08:39:11.438Z,101213.46
2022-12-08T08:41:39.990Z,101209.64
2022-12-08T08:44:08.509Z,101203.01
2022-12-08T08:46:36.840Z,101209.56
2022-12-08T08:49:05.291Z,101207.05
2022-12-08T08:51:33.891Z,101202.25
2022-12-08T08:54:02.226Z,101199.87
2022-12-08T08:56:30.782Z,101193.59
2022-12-08T08:58:59.325Z,101189.89
2022-12-08T09:01:28.546Z,101192.55
2022-12-08T09:03:57.235Z,101188.40
2022-12-08T09:06:26.162Z,101185.35
2022-12-08T09:08:54.596Z,101186.62
2022-12-08T09:11:23.715Z,101186.02
2022-12-08T09:13:54.767Z,101188.45
2022-12-08T09:16:23.493Z,101188.02
2022-12-08T09:18:52.336Z,101180.71
2022-12-08T09:21:25.966Z,101180.84
2022-12-08T09:23:56.789Z,101183.73
2022-12-08T09:26:27.237Z,101179.07
2022-12-08T09:28:56.328Z,101182.83
2022-12-08T09:31:25.546Z,101181.44
2022-12-08T09:33:54.313Z,101170.67
2022-12-08T09:36:22.667Z,101172.63
2022-12-08T09:38:53.712Z,101170.32
2022-12-08T09:41:37.531Z,101163.20
2022-12-08T09:44:07.472Z,101169.34
2022-12-08T09:46:36.557Z,101171.92
2022-12-08T09:49:05.770Z,101174.06
2022-12-08T09:51:38.654Z,101171.35
2022-12-08T09:54:25.002Z,101169.87
2022-12-08T09:56:57.019Z,101170.83
2022-12-08T09:59:27.224Z,101167.42
2022-12-08T10:01:55.749Z,101170.00
2022-12-08T10:04:35.423Z,101167.67
2022-12-08T10:07:16.749Z,101170.94
2022-12-08T10:10:21.845Z,101164.83
2022-12-08T10:13:31.323Z,101162.10
2022-12-08T10:16:23.120Z,101159.73
2022-12-08T10:19:11.027Z,101155.08
2022-12-08T10:21:39.947Z,101147.61
2022-12-08T10:24:41.097Z,101143.92
2022-12-08T10:27:13.587Z,101145.19
2022-12-08T10:29:42.389Z,101145.70
2022-12-08T10:32:19.538Z,101139.21
2022-12-08T10:35:02.417Z,101142.33
2022-12-08T10:37:31.017Z,101138.95
2022-12-08T10:40:12.138Z,101139.98
2022-12-08T10:42:52.685Z,101147.89
2022-12-08T10:45:31.226Z,101143.70
2022-12-08T10:48:14.443Z,101145.59
2022-12-08T10:50:59.619Z,101150.17
2022-12-08T10:53:29.376Z,101154.00
2022-12-08T10:56:04.069Z,101155.85
2022-12-08T10:58:35.918Z,101156.07
2022-12-08T11:01:07.363Z,101157.38
2022-12-08T11:03:59.450Z,101157.48
2022-12-08T11:06:33.215Z,101149.23
2022-12-08T11:09:27.459Z,101147.08
2022-12-08T11:12:08.058Z,101142.70
2022-12-08T11:14:42.621Z,101143.58
2022-12-08T11:17:17.939Z,101137.95
2022-12-08T11:20:03.045Z,101136.16
2022-12-08T11:22:46.679Z,101132.92
2022-12-08T11:25:26.633Z,101132.94
2022-12-08T11:27:58.112Z,101131.15
2022-12-08T11:30:31.687Z,101125.12
2022-12-08T11:33:16.994Z,101119.70
2022-12-08T11:35:50.337Z,101121.09
2022-12-08T11:38:24.380Z,101123.91
2022-12-08T11:40:56.205Z,101117.23
2022-12-08T11:43:33.704Z,101119.93
2022-12-08T11:46:15.459Z,101126.45
2022-12-08T11:49:07.030Z,101121.89
2022-12-08T11:51:40.908Z,101124.92
2022-12-08T11:54:11.309Z,101120.83
2022-12-08T11:56:54.779Z,101121.71
2022-12-08T11:59:39.834Z,101125.59
2022-12-08T12:02:17.570Z,101124.52
2022-12-08T12:05:05.247Z,101118.17
2022-12-08T12:08:03.371Z,101112.87
2022-12-08T12:11:09.530Z,101114.81
2022-12-08T12:14:26.748Z,101112.70
2022-12-08T12:17:20.850Z,101110.41
2022-12-08T12:19:50.297Z,101111.13
2022-12-08T12:22:21.794Z,101107.57
2022-12-08T12:28:07.993Z,101103.31
2022-12-08T12:30:54.471Z,101103.65
2022-12-08T12:33:23.536Z,101110.86
2022-12-08T12:35:53.170Z,101108.39
2022-12-08T12:38:48.955Z,101100.65
2022-12-08T12:41:26.600Z,101096.08
2022-12-08T12:44:13.421Z,101096.44
2022-12-08T12:46:50.803Z,101104.20
2022-12-08T12:49:38.325Z,101101.84
2022-12-08T12:52:10.268Z,101110.33
2022-12-08T12:54:42.435Z,101114.55
2022-12-08T12:57:10.900Z,101111.52
2022-12-08T13:00:09.166Z,101108.14
2022-12-08T13:02:49.863Z,101102.52
2022-12-08T13:05:24.325Z,101101.80
2022-12-08T13:08:20.467Z,101092.23
2022-12-08T13:14:31.819Z,101091.60
2022-12-08T13:17:02.630Z,101102.91
2022-12-08T13:19:33.226Z,101102.20
2022-12-08T13:22:01.946Z,101099.18
2022-12-08T13:24:33.498Z,101096.55
2022-12-08T13:27:05.252Z,101099.20
2022-12-08T13:29:37.723Z,101097.77
2022-12-08T13:32:09.940Z,101089.83
2022-12-08T13:34:46.000Z,101089.65
2022-12-08T13:37:55.382Z,101085.39
2022-12-08T13:40:27.523Z,101086.45
2022-12-08T13:43:02.283Z,101088.40
2022-12-08T13:46:20.254Z,101091.34
2022-12-08T13:58:00.341Z,101092.44
2022-12-08T14:00:28.999Z,101093.61
2022-12-08T14:03:01.569Z,101096.80
2022-12-08T14:06:11.221Z,101098.96
2022-12-08T14:11:35.712Z,101089.41
2022-12-08T14:14:46.004Z,101093.14
2022-12-08T14:17:23.279Z,101090.09
2022-12-08T14:19:59.821Z,101088.02
2022-12-08T14:22:40.814Z,101087.13
2022-12-08T14:39:13.064Z,101082.95
2022-12-08T14:41:40.624Z,101077.77
2022-12-08T14:44:24.174Z,101082.64
2022-12-08T14:47:09.879Z,101084.71
2022-12-08T14:49:39.650Z,101087.66
2022-12-08T14:52:14.528Z,101085.46
2022-12-08T14:54:43.444Z,101087.42
2022-12-08T14:57:14.560Z,101086.85
2022-12-08T14:59:43.599Z,101089.26
2022-12-08T15:02:23.919Z,101091.23
2022-12-08T15:05:04.358Z,101091.02
2022-12-08T15:07:53.843Z,101088.20
2022-12-08T15:10:27.705Z,101086.48
2022-12-08T15:13:06.975Z,101085.58
2022-12-08T15:15:55.539Z,101088.91
2022-12-08T15:18:38.716Z,101089.48
2022-12-08T15:21:12.525Z,101088.59
2022-12-08T15:23:46.353Z,101085.77
2022-12-08T15:26:25.373Z,101091.74
2022-12-08T15:28:54.123Z,101092.27
2022-12-08T15:31:21.645Z,101096.14
2022-12-08T15:33:48.947Z,101094.06
2022-12-08T15:36:16.317Z,101092.11
2022-12-08T15:38:43.817Z,101091.80
2022-12-08T15:41:14.974Z,101093.55
2022-12-08T15:43:43.003Z,101087.91
2022-12-08T15:46:12.967Z,101084.35
2022-12-08T15:48:41.004Z,101087.15
2022-12-08T15:51:08.629Z,101087.14
2022-12-08T15:53:35.993Z,101086.80
2022-12-08T15:58:56.468Z,101089.27
2022-12-08T16:01:26.048Z,101091.73
2022-12-08T16:09:39.880Z,101089.84
2022-12-08T16:13:48.338Z,101089.66
2022-12-08T16:18:23.498Z,101102.45
2022-12-08T16:21:13.917Z,101104.54
2022-12-08T16:23:43.699Z,101110.54
2022-12-08T16:29:07.779Z,101106.21
2022-12-08T16:31:35.200Z,101108.83
2022-12-08T16:34:02.607Z,101109.37
2022-12-08T16:36:30.423Z,101104.10
2022-12-08T16:38:57.884Z,101101.47
2022-12-08T16:41:43.537Z,101096.20
2022-12-08T16:44:10.797Z,101091.80
2022-12-08T16:46:38.697Z,101083.52
2022-12-08T16:49:08.742Z,101076.30
2022-12-08T16:51:36.121Z,101078.90
2022-12-08T16:54:03.603Z,101072.38
2022-12-08T16:56:33.464Z,101071.98
2022-12-08T16:59:01.809Z,101076.92
2022-12-08T17:01:29.161Z,101082.05
2022-12-08T17:04:29.318Z,101083.15
2022-12-08T17:06:44.282Z,101086.96
2022-12-08T17:09:11.579Z,101085.49
2022-12-08T17:25:27.448Z,101083.62
2022-12-08T17:27:55.746Z,101080.05
2022-12-08T17:30:23.591Z,101088.15
2022-12-08T17:32:52.630Z,101090.77
2022-12-08T17:35:20.063Z,101089.31
2022-12-08T17:37:48.946Z,101084.11
2022-12-08T17:40:16.229Z,101086.48
2022-12-08T17:42:43.586Z,101086.85
2022-12-08T17:45:11.062Z,101084.94
2022-12-08T17:47:40.773Z,101088.63
2022-12-08T17:50:08.896Z,101094.44
2022-12-08T17:52:36.352Z,101097.05
2022-12-08T17:55:04.349Z,101095.11
2022-12-08T17:57:31.646Z,101090.35
2022-12-08T17:59:58.953Z,101087.89
2022-12-08T18:02:26.478Z,101081.73
2022-12-08T18:04:54.095Z,101076.24
2022-12-08T18:07:21.340Z,101073.75
2022-12-08T18:09:48.738Z,101073.88
2022-12-08T18:12:20.703Z,101075.07
2022-12-08T18:14:51.764Z,101070.48
2022-12-08T18:17:20.355Z,101070.64
2022-12-08T18:19:47.679Z,101067.08
2022-12-08T18:22:15.451Z,101072.73
2022-12-08T18:24:43.421Z,101071.67
2022-12-08T18:27:10.841Z,101068.52
2022-12-08T18:29:38.296Z,101060.90
2022-12-08T18:32:06.561Z,101057.73
2022-12-08T18:45:27.892Z,101070.97
2022-12-08T18:47:56.567Z,101063.95
2022-12-08T18:50:25.226Z,101060.78
2022-12-08T18:52:53.985Z,101062.86
2022-12-08T18:55:22.626Z,101060.21
2022-12-08T19:00:57.011Z,101072.02
2022-12-08T19:03:25.825Z,101074.29
2022-12-08T19:06:06.441Z,101073.13
2022-12-08T19:08:35.160Z,101070.98
2022-12-08T19:11:04.134Z,101072.23
2022-12-08T19:13:32.753Z,101080.31
2022-12-08T19:16:01.443Z,101078.54
2022-12-08T19:18:30.045Z,101073.61
2022-12-08T19:21:00.011Z,101064.42
2022-12-08T19:23:29.254Z,101063.02
2022-12-08T19:25:57.822Z,101061.95
2022-12-08T19:28:26.379Z,101067.27
2022-12-08T19:31:14.882Z,101067.44
2022-12-08T19:33:48.167Z,101069.58
2022-12-08T19:36:23.790Z,101066.56
2022-12-08T19:39:15.528Z,101072.75
2022-12-08T19:42:02.782Z,101075.73
2022-12-08T19:44:56.450Z,101066.03
2022-12-08T19:47:28.024Z,101064.27
2022-12-08T19:50:25.916Z,101063.52
2022-12-08T19:52:59.720Z,101060.86
2022-12-08T19:55:46.688Z,101070.91
2022-12-08T19:58:24.846Z,101068.77
2022-12-08T20:00:57.932Z,101067.70
2022-12-08T20:03:38.586Z,101060.80
2022-12-08T20:06:19.647Z,101055.33
2022-12-08T20:08:51.517Z,101049.33
2022-12-08T20:11:23.914Z,101053.60
2022-12-08T20:13:55.190Z,101050.25
2022-12-08T20:16:26.964Z,101037.88
2022-12-08T20:18:55.818Z,101029.36
2022-12-08T20:21:24.611Z,101020.73
2022-12-08T20:23:53.342Z,101012.43
2022-12-08T20:26:23.611Z,101009.39
2022-12-08T20:28:52.431Z,101012.92
2022-12-08T20:31:29.090Z,101009.58
2022-12-08T20:33:58.277Z,101015.95
2022-12-08T20:36:27.499Z,101010.13
2022-12-08T20:38:56.355Z,101010.84
2022-12-08T20:41:24.944Z,101010.65
2022-12-08T20:43:54.290Z,101010.48
2022-12-08T20:46:23.039Z,101010.30
2022-12-08T20:48:51.938Z,101005.33
2022-12-08T20:51:25.667Z,101013.27
2022-12-08T20:54:01.614Z,101014.87
2022-12-08T20:56:35.691Z,101015.04
2022-12-08T20:59:04.684Z,101008.50
2022-12-08T21:01:33.368Z,101007.99
2022-12-08T21:04:02.360Z,101002.89
2022-12-08T21:06:31.881Z,100998.98
2022-12-08T21:09:00.687Z,100999.33
2022-12-08T21:11:32.308Z,100995.29
2022-12-08T21:14:00.940Z,100991.56
2022-12-08T21:16:29.943Z,100987.34
2022-12-08T21:19:00.034Z,100980.23
2022-12-08T21:21:29.792Z,100977.55
2022-12-08T21:24:01.439Z,100975.27
2022-12-08T21:26:30.929Z,100977.59
2022-12-08T21:28:59.678Z,100970.31
2022-12-08T21:31:30.580Z,100969.80
2022-12-08T21:34:00.174Z,100971.45
2022-12-08T21:36:29.260Z,100971.39
2022-12-08T21:39:01.736Z,100964.14
2022-12-08T21:41:49.379Z,100956.20
2022-12-08T21:44:20.945Z,100952.88
2022-12-08T21:46:50.331Z,100955.86
2022-12-08T21:49:19.211Z,100953.60
2022-12-08T21:54:05.555Z,100946.05
2022-12-08T21:56:35.843Z,100950.14
2022-12-08T21:59:04.589Z,100950.50
2022-12-08T22:01:33.596Z,100952.96
2022-12-08T22:04:02.959Z,100960.71
2022-12-08T22:06:31.605Z,100960.92
2022-12-08T22:09:00.264Z,100956.33
2022-12-08T22:11:28.972Z,100953.33
2022-12-08T22:13:57.683Z,100943.45
2022-12-08T22:16:26.400Z,100930.74
2022-12-08T22:18:57.624Z,100925.10
2022-12-08T22:21:28.292Z,100921.23
2022-12-08T22:23:56.877Z,100915.75
2022-12-08T22:26:25.603Z,100919.81
2022-12-08T22:28:54.652Z,100915.94
2022-12-08T22:31:23.418Z,100911.71
2022-12-08T22:33:52.439Z,100905.01
2022-12-08T22:36:24.584Z,100908.72
2022-12-08T22:38:56.749Z,100906.61
2022-12-08T22:41:25.448Z,100899.37
2022-12-08T22:43:54.182Z,100901.84
2022-12-08T22:46:26.831Z,100898.69
2022-12-08T22:48:55.754Z,100903.09
2022-12-08T22:51:24.424Z,100909.44
2022-12-08T22:53:53.081Z,100898.69
2022-12-08T22:56:21.950Z,100890.58
2022-12-08T22:58:51.383Z,100886.48
2022-12-08T23:01:31.202Z,100880.15
2022-12-08T23:04:02.345Z,100878.56
2022-12-08T23:06:33.770Z,100873.45
2022-12-08T23:09:02.695Z,100871.67
2022-12-08T23:11:31.834Z,100879.08
2022-12-08T23:14:01.148Z,100884.74
2022-12-08T23:16:29.746Z,100884.75
2022-12-08T23:18:59.270Z,100878.75
2022-12-08T23:21:28.077Z,100872.22
2022-12-08T23:23:56.714Z,100870.29
2022-12-08T23:26:28.856Z,100872.77
2022-12-08T23:28:59.088Z,100881.23
2022-12-08T23:31:28.142Z,100878.05
2022-12-08T23:33:56.935Z,100883.72
2022-12-08T23:36:28.062Z,100888.31
2022-12-08T23:38:59.256Z,100889.21
2022-12-08T23:41:28.029Z,100893.27
2022-12-08T23:43:57.370Z,100890.43
2022-12-08T23:46:26.151Z,100883.90
2022-12-08T23:48:55.104Z,100882.48
2022-12-08T23:51:23.675Z,100883.02
2022-12-08T23:53:52.434Z,100880.20
2022-12-08T23:56:22.227Z,100880.57
2022-12-08T23:58:53.041Z,100870.35
